Time;durP1;ratioP1;P1;durP2;ratioP2;P2;SDS_P1;SDS_P2;PMS_P1;PMS_P2;Temp;Humidity;BMP_temperature;BMP_pressure;BME280_temperature;BME280_humidity;BME280_pressure;Samples;Min_cycle;Max_cycle;Signal;HPM_P1;HPM_P2
2021/09/07 00:02:03;;;;;;;5.93;5.17;;;20.40;99.90;;;;;;5005936;28;20520;-75
2021/09/07 00:04:31;;;;;;;7.23;6.13;;;20.30;99.90;;;;;;5008336;28;20453;-75
2021/09/07 00:07:00;;;;;;;6.70;6.00;;;20.30;99.90;;;;;;5007077;28;20520;-76
2021/09/07 00:09:28;;;;;;;5.93;5.20;;;20.30;99.90;;;;;;5008672;28;20499;-74
2021/09/07 00:11:57;;;;;;;6.47;5.53;;;20.30;99.90;;;;;;5006582;28;20481;-74
2021/09/07 00:14:25;;;;;;;7.73;5.50;;;20.30;99.90;;;;;;5008586;28;20543;-75
2021/09/07 00:16:53;;;;;;;7.47;6.10;;;20.20;99.90;;;;;;5005725;28;20882;-74
2021/09/07 00:19:22;;;;;;;6.63;5.77;;;20.20;99.90;;;;;;5007680;28;20460;-76
2021/09/07 00:21:53;;;;;;;8.10;6.37;;;20.20;99.90;;;;;;5007763;28;20504;-75
2021/09/07 00:24:21;;;;;;;6.17;5.57;;;20.10;99.90;;;;;;5008555;28;20985;-72
2021/09/07 00:26:49;;;;;;;11.30;6.50;;;20.10;99.90;;;;;;5005447;28;20533;-75
2021/09/07 00:29:19;;;;;;;7.13;5.90;;;20.10;99.90;;;;;;5007253;28;20465;-76
2021/09/07 00:31:47;;;;;;;8.23;6.23;;;20.10;99.90;;;;;;5006765;28;20543;-74
2021/09/07 00:34:15;;;;;;;6.90;6.20;;;20.10;99.90;;;;;;5008581;28;20480;-75
2021/09/07 00:36:43;;;;;;;7.27;5.77;;;20.00;99.90;;;;;;5008404;28;20512;-75
2021/09/07 00:39:12;;;;;;;6.13;5.40;;;20.00;99.90;;;;;;5007356;28;20458;-75
2021/09/07 00:41:41;;;;;;;7.30;6.40;;;20.00;99.90;;;;;;5008133;28;20457;-77
2021/09/07 00:44:18;;;;;;;6.70;5.20;;;20.00;99.90;;;;;;5006577;28;20454;-74
2021/09/07 00:46:50;;;;;;;7.10;6.03;;;20.00;99.90;;;;;;4998858;28;20556;-73
2021/09/07 00:49:19;;;;;;;5.90;5.30;;;19.90;99.90;;;;;;5003176;28;20457;-76
2021/09/07 00:51:47;;;;;;;9.50;6.43;;;19.90;99.90;;;;;;5007777;28;20522;-74
2021/09/07 00:54:35;;;;;;;6.77;5.80;;;19.80;99.90;;;;;;5005927;28;20461;-76
2021/09/07 00:57:05;;;;;;;8.10;6.63;;;19.70;99.90;;;;;;5006522;28;20515;-75
2021/09/07 00:59:35;;;;;;;7.83;6.33;;;19.70;99.90;;;;;;5006961;28;20875;-74
2021/09/07 01:02:04;;;;;;;5.87;5.27;;;19.70;99.90;;;;;;5006171;28;20500;-74
2021/09/07 01:04:33;;;;;;;6.60;5.70;;;19.70;99.90;;;;;;5005436;28;20471;-75
2021/09/07 01:07:04;;;;;;;6.77;5.80;;;19.70;99.90;;;;;;5007357;28;20484;-75
2021/09/07 01:09:32;;;;;;;7.37;6.10;;;19.70;99.90;;;;;;5006096;28;20449;-76
2021/09/07 01:12:00;;;;;;;8.40;5.97;;;19.70;99.90;;;;;;5003363;28;20477;-75
2021/09/07 01:14:30;;;;;;;6.97;5.97;;;19.70;99.90;;;;;;5006489;28;20464;-73
2021/09/07 01:17:00;;;;;;;6.90;6.00;;;19.70;99.90;;;;;;5005033;28;21005;-73
2021/09/07 01:19:28;;;;;;;6.70;5.90;;;19.60;99.90;;;;;;5007033;28;21207;-73
2021/09/07 01:21:56;;;;;;;6.70;5.70;;;19.60;99.90;;;;;;5006322;28;21055;-76
2021/09/07 01:24:27;;;;;;;6.47;5.37;;;19.60;99.90;;;;;;5007246;28;20465;-75
2021/09/07 01:26:56;;;;;;;6.30;5.30;;;19.60;99.90;;;;;;5005970;28;20477;-76
2021/09/07 01:29:24;;;;;;;7.63;6.50;;;19.60;99.90;;;;;;5006410;28;20468;-77
2021/09/07 01:31:57;;;;;;;6.50;5.63;;;19.60;99.90;;;;;;5003520;28;20500;-75
2021/09/07 01:34:26;;;;;;;6.67;5.97;;;19.60;99.90;;;;;;5006360;28;20457;-76
2021/09/07 01:36:54;;;;;;;7.40;6.70;;;19.50;99.90;;;;;;5007315;28;20489;-77
2021/09/07 01:39:22;;;;;;;6.10;5.50;;;19.50;99.90;;;;;;5006343;28;20523;-75
2021/09/07 01:41:53;;;;;;;7.57;5.30;;;19.40;99.90;;;;;;5006825;28;20478;-76
2021/09/07 01:44:22;;;;;;;7.97;5.90;;;19.40;99.90;;;;;;5001811;28;20520;-74
2021/09/07 01:46:50;;;;;;;6.30;5.40;;;19.40;99.90;;;;;;5000650;28;20845;-77
2021/09/07 01:49:19;;;;;;;6.10;5.50;;;19.40;99.90;;;;;;5005835;28;20446;-76
2021/09/07 01:51:48;;;;;;;6.40;5.63;;;19.40;99.90;;;;;;5007051;28;20477;-73
2021/09/07 01:54:19;;;;;;;7.83;7.03;;;19.30;99.90;;;;;;5006158;28;20446;-75
2021/09/07 01:56:47;;;;;;;6.13;5.53;;;19.40;99.90;;;;;;5006778;28;20829;-75
2021/09/07 01:59:16;;;;;;;7.60;5.60;;;19.30;99.90;;;;;;5008932;28;20859;-77
2021/09/07 02:01:45;;;;;;;6.50;5.73;;;19.30;99.90;;;;;;5009345;28;20473;-74
2021/09/07 02:04:13;;;;;;;7.67;5.43;;;19.30;99.90;;;;;;5011288;28;20453;-75
2021/09/07 02:06:41;;;;;;;6.57;5.50;;;19.20;99.90;;;;;;5010647;28;20559;-75
2021/09/07 02:09:10;;;;;;;8.60;6.57;;;19.20;99.90;;;;;;5010757;28;20453;-75
2021/09/07 02:11:38;;;;;;;6.53;5.10;;;19.20;99.90;;;;;;5008819;28;20484;-74
2021/09/07 02:14:06;;;;;;;7.43;5.80;;;19.20;99.90;;;;;;5010826;28;20457;-75
2021/09/07 02:16:35;;;;;;;5.90;5.40;;;19.20;99.90;;;;;;5010451;28;20458;-75
2021/09/07 02:19:03;;;;;;;6.77;6.07;;;19.20;99.90;;;;;;5008984;28;20882;-74
2021/09/07 02:21:31;;;;;;;7.50;6.27;;;19.20;99.90;;;;;;5006946;28;20570;-75
2021/09/07 02:23:59;;;;;;;6.40;5.20;;;19.20;99.90;;;;;;5011419;28;20495;-75
2021/09/07 02:26:28;;;;;;;6.17;5.57;;;19.10;99.90;;;;;;5010782;28;20467;-75
2021/09/07 02:28:56;;;;;;;6.80;5.70;;;19.10;99.90;;;;;;5007635;28;20511;-75
2021/09/07 02:31:26;;;;;;;6.07;5.47;;;19.10;99.90;;;;;;5008706;28;21019;-76
2021/09/07 02:33:55;;;;;;;6.50;5.90;;;19.10;99.90;;;;;;5005127;28;20484;-78
2021/09/07 02:36:24;;;;;;;6.23;5.37;;;19.10;99.90;;;;;;5008384;28;20452;-77
2021/09/07 02:38:52;;;;;;;8.00;6.03;;;19.10;99.90;;;;;;5010408;28;20519;-77
2021/09/07 02:41:20;;;;;;;6.53;5.93;;;19.00;99.90;;;;;;5007505;28;20538;-78
2021/09/07 02:43:48;;;;;;;7.20;5.40;;;19.00;99.90;;;;;;5009798;28;20459;-75
2021/09/07 02:46:17;;;;;;;6.57;5.77;;;19.00;99.90;;;;;;5010472;28;21185;-75
2021/09/07 02:48:45;;;;;;;7.23;5.63;;;19.00;99.90;;;;;;5009794;28;20473;-73
2021/09/07 02:51:15;;;;;;;9.63;6.30;;;19.00;99.90;;;;;;5007902;28;21051;-75
2021/09/07 02:53:43;;;;;;;12.40;8.03;;;19.00;99.90;;;;;;5007636;28;20801;-75
2021/09/07 02:56:14;;;;;;;7.60;6.00;;;18.90;99.90;;;;;;5010523;28;20460;-74
2021/09/07 02:58:42;;;;;;;7.20;6.47;;;18.90;99.90;;;;;;5010941;28;20450;-74
2021/09/07 03:01:10;;;;;;;10.40;7.23;;;18.80;99.90;;;;;;5007835;28;20587;-76
2021/09/07 03:03:39;;;;;;;13.87;8.77;;;18.80;99.90;;;;;;5009909;28;20983;-74
2021/09/07 03:06:07;;;;;;;13.50;10.93;;;18.80;99.90;;;;;;5010935;28;20468;-74
2021/09/07 03:08:37;;;;;;;6.20;5.60;;;18.80;99.90;;;;;;5007901;28;20538;-75
2021/09/07 03:11:05;;;;;;;8.33;6.07;;;18.80;99.90;;;;;;5005546;28;20870;-75
2021/09/07 03:13:33;;;;;;;6.83;6.07;;;18.80;99.90;;;;;;5009298;28;20449;-74
2021/09/07 03:16:01;;;;;;;7.57;5.90;;;18.80;99.90;;;;;;5007345;28;20455;-75
2021/09/07 03:18:30;;;;;;;9.07;7.20;;;18.80;99.90;;;;;;5003917;28;20437;-72
2021/09/07 03:20:58;;;;;;;8.60;7.23;;;18.80;99.90;;;;;;5008205;28;20470;-74
2021/09/07 03:23:26;;;;;;;9.20;6.73;;;18.80;99.90;;;;;;5006616;28;20966;-74
2021/09/07 03:25:56;;;;;;;7.17;6.47;;;18.70;99.90;;;;;;5008238;28;21040;-75
2021/09/07 03:28:24;;;;;;;9.60;7.20;;;18.70;99.90;;;;;;5009580;28;20563;-74
2021/09/07 03:30:52;;;;;;;6.73;5.50;;;18.70;99.90;;;;;;5007085;28;20455;-74
2021/09/07 03:33:20;;;;;;;8.40;7.20;;;18.70;99.90;;;;;;5008729;28;20459;-75
2021/09/07 03:35:48;;;;;;;7.27;6.27;;;18.80;99.90;;;;;;5007410;28;20536;-75
2021/09/07 03:38:16;;;;;;;6.83;6.13;;;18.70;99.90;;;;;;5004165;28;20456;-74
2021/09/07 03:40:45;;;;;;;8.13;6.03;;;18.60;99.90;;;;;;4999947;28;20455;-75
2021/09/07 03:43:14;;;;;;;6.47;5.80;;;18.60;99.90;;;;;;5009461;28;20464;-75
2021/09/07 03:45:42;;;;;;;6.57;5.97;;;18.60;99.90;;;;;;5002928;28;20574;-76
2021/09/07 03:48:11;;;;;;;7.40;5.73;;;18.60;99.90;;;;;;5008837;28;20476;-75
2021/09/07 03:50:39;;;;;;;6.67;6.07;;;18.60;99.90;;;;;;5006269;28;20478;-75
2021/09/07 03:53:07;;;;;;;8.30;5.90;;;18.60;99.90;;;;;;5009225;28;20542;-77
2021/09/07 03:55:35;;;;;;;7.73;6.40;;;18.60;99.90;;;;;;5007971;28;20453;-75
2021/09/07 03:58:04;;;;;;;9.63;6.07;;;18.60;99.90;;;;;;5008644;28;20453;-76
2021/09/07 04:00:33;;;;;;;6.07;5.47;;;18.60;99.90;;;;;;5006255;28;20486;-77
2021/09/07 04:03:02;;;;;;;7.17;6.23;;;18.60;99.90;;;;;;5008498;28;20921;-75
2021/09/07 04:05:30;;;;;;;6.23;5.57;;;18.50;99.90;;;;;;5008075;28;21207;-75
2021/09/07 04:07:58;;;;;;;6.23;5.63;;;18.50;99.90;;;;;;5009798;28;20510;-75
2021/09/07 04:10:26;;;;;;;7.53;5.90;;;18.50;99.90;;;;;;5007485;28;20457;-76
2021/09/07 04:12:54;;;;;;;7.00;5.77;;;18.50;99.90;;;;;;5008083;28;20480;-75
2021/09/07 04:15:23;;;;;;;7.23;6.13;;;18.40;99.90;;;;;;5007203;28;20467;-76
2021/09/07 04:17:52;;;;;;;6.90;6.20;;;18.50;99.90;;;;;;5005557;28;20544;-76
2021/09/07 04:20:21;;;;;;;7.50;5.70;;;18.50;99.90;;;;;;5006614;28;20449;-76
2021/09/07 04:22:49;;;;;;;6.57;5.40;;;18.50;99.90;;;;;;5008384;28;20535;-74
2021/09/07 04:25:17;;;;;;;5.63;5.07;;;18.50;99.90;;;;;;5006394;28;21234;-77
2021/09/07 04:27:45;;;;;;;6.27;5.67;;;18.40;99.90;;;;;;5007787;28;20445;-76
2021/09/07 04:30:14;;;;;;;5.67;5.07;;;18.40;99.90;;;;;;5003619;28;20447;-75
2021/09/07 04:32:42;;;;;;;6.60;5.10;;;18.30;99.90;;;;;;5008535;28;20465;-74
2021/09/07 04:35:14;;;;;;;7.07;5.57;;;18.30;99.90;;;;;;5002096;28;20453;-75
2021/09/07 04:37:42;;;;;;;5.97;5.37;;;18.30;99.90;;;;;;4989795;28;20451;-76
2021/09/07 04:40:11;;;;;;;5.30;4.80;;;18.30;99.90;;;;;;5005167;28;20512;-74
2021/09/07 04:42:39;;;;;;;6.03;5.07;;;18.30;99.90;;;;;;5008195;28;20464;-75
2021/09/07 04:45:08;;;;;;;6.67;5.20;;;18.30;99.90;;;;;;4992238;28;20448;-74
2021/09/07 04:47:37;;;;;;;6.93;5.73;;;18.30;99.90;;;;;;5005758;28;20464;-75
2021/09/07 04:50:07;;;;;;;7.17;6.33;;;18.30;99.90;;;;;;5003426;28;20453;-75
2021/09/07 04:52:36;;;;;;;6.53;5.80;;;18.30;99.90;;;;;;5007971;28;20518;-75
2021/09/07 04:55:05;;;;;;;5.90;5.27;;;18.30;99.90;;;;;;4988707;28;20461;-74
2021/09/07 04:57:34;;;;;;;8.70;6.60;;;18.30;99.90;;;;;;5008651;28;20469;-76
2021/09/07 05:00:02;;;;;;;6.10;5.50;;;18.30;99.90;;;;;;5006501;28;20874;-75
2021/09/07 05:02:35;;;;;;;7.13;6.43;;;18.30;99.90;;;;;;5007388;28;20485;-75
2021/09/07 05:05:05;;;;;;;8.00;7.20;;;18.30;99.90;;;;;;5005753;28;20851;-73
2021/09/07 05:07:34;;;;;;;6.93;5.83;;;18.30;99.90;;;;;;4990684;28;20500;-73
2021/09/07 05:10:04;;;;;;;6.43;5.77;;;18.30;99.90;;;;;;5006568;28;21271;-74
2021/09/07 05:12:33;;;;;;;7.20;6.47;;;18.20;99.90;;;;;;5008136;28;20508;-74
2021/09/07 05:15:01;;;;;;;6.87;6.17;;;18.30;99.90;;;;;;5006377;28;20460;-74
2021/09/07 05:17:29;;;;;;;8.30;6.83;;;18.30;99.90;;;;;;5005844;28;20453;-73
2021/09/07 05:19:57;;;;;;;7.47;6.30;;;18.30;99.90;;;;;;5006128;28;20526;-76
2021/09/07 05:22:25;;;;;;;8.77;5.83;;;18.30;99.90;;;;;;5004576;28;21069;-74
2021/09/07 05:24:53;;;;;;;7.60;6.03;;;18.30;99.90;;;;;;5005279;28;20522;-73
2021/09/07 05:27:22;;;;;;;6.10;5.50;;;18.30;99.90;;;;;;4987634;28;20515;-76
2021/09/07 05:29:51;;;;;;;7.60;6.00;;;18.30;99.90;;;;;;4994909;28;22279;-77
2021/09/07 05:32:21;;;;;;;8.83;6.30;;;18.30;99.90;;;;;;5006308;28;20529;-76
2021/09/07 05:34:51;;;;;;;7.27;6.57;;;18.40;99.90;;;;;;5010341;28;20480;-76
2021/09/07 05:37:19;;;;;;;8.53;6.43;;;18.40;99.90;;;;;;5011701;28;20518;-75
2021/09/07 05:39:47;;;;;;;6.97;6.03;;;18.40;99.90;;;;;;5009779;28;20806;-75
2021/09/07 05:42:15;;;;;;;6.87;6.27;;;18.40;99.90;;;;;;5007431;28;20488;-76
2021/09/07 05:44:44;;;;;;;6.77;5.60;;;18.40;99.90;;;;;;5009062;28;20468;-76
2021/09/07 05:47:12;;;;;;;12.90;9.07;;;18.40;99.90;;;;;;5008087;28;20469;-75
2021/09/07 05:49:41;;;;;;;6.87;6.17;;;18.40;99.90;;;;;;5008724;28;20480;-76
2021/09/07 05:52:09;;;;;;;7.60;5.63;;;18.50;99.90;;;;;;5010462;28;20871;-78
2021/09/07 05:54:37;;;;;;;8.80;6.73;;;18.30;99.90;;;;;;5010563;28;20841;-75
2021/09/07 05:57:06;;;;;;;8.70;6.47;;;18.50;99.90;;;;;;5008734;28;20933;-72
2021/09/07 05:59:34;;;;;;;7.27;6.00;;;18.30;99.90;;;;;;5008265;28;20461;-69
2021/09/07 06:02:04;;;;;;;7.63;5.90;;;18.10;99.90;;;;;;5004599;28;20547;-71
2021/09/07 06:04:32;;;;;;;8.33;6.80;;;18.00;99.90;;;;;;5006366;28;20931;-70
2021/09/07 06:07:00;;;;;;;7.00;6.30;;;17.90;99.90;;;;;;5001780;28;20532;-69
2021/09/07 06:09:28;;;;;;;8.60;6.00;;;17.90;1.00;;;;;;5007188;28;20490;-74
2021/09/07 06:11:56;;;;;;;7.93;7.13;;;18.00;1.00;;;;;;5011156;28;20485;-80
2021/09/07 06:14:25;;;;;;;8.97;7.20;;;18.20;99.90;;;;;;5010164;28;20468;-78
2021/09/07 06:16:53;;;;;;;10.73;6.77;;;18.40;99.90;;;;;;5007866;28;20453;-78
2021/09/07 06:19:22;;;;;;;8.00;6.67;;;18.50;99.90;;;;;;4995759;28;20453;-78
2021/09/07 06:21:50;;;;;;;7.30;6.07;;;18.60;99.90;;;;;;5002329;28;20779;-77
2021/09/07 06:24:19;;;;;;;7.90;6.50;;;18.60;99.90;;;;;;5006415;28;20461;-77
2021/09/07 06:26:47;;;;;;;10.20;7.47;;;18.70;99.90;;;;;;5001753;28;20465;-78
2021/09/07 06:29:15;;;;;;;8.70;7.10;;;18.70;99.90;;;;;;5010419;28;20482;-77
2021/09/07 06:31:43;;;;;;;9.17;7.70;;;18.70;99.90;;;;;;5006189;28;20589;-78
2021/09/07 06:34:11;;;;;;;7.43;6.73;;;18.80;99.90;;;;;;5011275;28;20464;-76
2021/09/07 06:36:41;;;;;;;8.93;7.40;;;18.80;99.90;;;;;;5006885;28;20464;-78
2021/09/07 06:39:10;;;;;;;9.83;7.50;;;18.90;99.90;;;;;;5010034;28;20459;-77
2021/09/07 06:41:38;;;;;;;10.00;7.13;;;19.00;99.90;;;;;;5008312;28;20857;-74
2021/09/07 06:44:06;;;;;;;9.40;7.50;;;19.10;99.90;;;;;;5009371;28;20978;-77
2021/09/07 06:46:37;;;;;;;8.10;7.27;;;19.10;99.90;;;;;;5010418;28;20560;-78
2021/09/07 06:49:06;;;;;;;10.33;7.87;;;19.10;99.90;;;;;;5007646;28;20488;-76
2021/09/07 06:51:34;;;;;;;10.17;7.93;;;19.10;99.90;;;;;;5009279;28;20478;-78
2021/09/07 06:54:04;;;;;;;7.67;6.70;;;19.20;99.90;;;;;;5007709;28;20553;-78
2021/09/07 06:56:32;;;;;;;7.73;6.93;;;19.30;99.90;;;;;;5010253;28;20956;-77
2021/09/07 06:59:00;;;;;;;9.47;7.80;;;19.40;99.90;;;;;;5012672;28;20450;-77
2021/09/07 07:01:29;;;;;;;11.13;7.43;;;19.40;99.90;;;;;;5011692;28;20497;-76
2021/09/07 07:03:57;;;;;;;8.30;7.33;;;19.50;99.90;;;;;;5011329;28;20548;-78
2021/09/07 07:06:25;;;;;;;10.93;7.13;;;19.50;99.90;;;;;;5011692;28;20504;-76
2021/09/07 07:08:54;;;;;;;8.63;7.73;;;19.60;99.90;;;;;;5011430;28;21009;-75
2021/09/07 07:11:23;;;;;;;9.33;7.30;;;19.70;99.90;;;;;;5011481;28;20468;-78
2021/09/07 07:13:51;;;;;;;13.50;8.83;;;19.70;99.90;;;;;;5009580;28;20460;-78
2021/09/07 07:16:19;;;;;;;11.50;8.32;;;19.80;99.90;;;;;;5007704;28;20439;-76
2021/09/07 07:18:48;;;;;;;10.07;7.80;;;19.90;99.90;;;;;;5013086;28;20187;-77
2021/09/07 07:21:16;;;;;;;9.10;8.20;;;19.90;99.90;;;;;;5010719;28;21000;-77
2021/09/07 07:23:44;;;;;;;12.47;7.77;;;20.00;99.90;;;;;;5012669;28;20464;-75
2021/09/07 07:26:12;;;;;;;9.20;7.47;;;20.00;99.90;;;;;;5009781;28;20445;-78
2021/09/07 07:28:41;;;;;;;12.03;8.13;;;20.10;99.90;;;;;;5005763;28;20465;-75
2021/09/07 07:31:10;;;;;;;9.97;7.57;;;20.20;99.90;;;;;;5002355;28;20563;-77
2021/09/07 07:33:38;;;;;;;10.87;9.87;;;20.30;99.90;;;;;;5009135;28;20515;-76
2021/09/07 07:36:06;;;;;;;7.67;6.93;;;20.30;99.90;;;;;;5008135;28;20503;-77
2021/09/07 07:38:34;;;;;;;8.83;7.63;;;20.40;99.90;;;;;;5010540;28;20994;-76
2021/09/07 07:41:02;;;;;;;9.13;7.67;;;20.40;99.90;;;;;;5007800;28;20461;-76
2021/09/07 07:43:33;;;;;;;7.33;6.60;;;20.50;99.90;;;;;;5008964;28;20453;-76
2021/09/07 07:46:03;;;;;;;9.70;7.13;;;20.60;99.90;;;;;;5008080;28;20512;-76
2021/09/07 07:48:32;;;;;;;7.80;6.30;;;20.80;99.90;;;;;;5010138;28;21056;-78
2021/09/07 07:51:00;;;;;;;11.43;8.17;;;20.90;99.90;;;;;;4990966;28;20462;-78
2021/09/07 07:53:28;;;;;;;6.13;5.57;;;21.00;99.90;;;;;;5011040;28;20449;-77
2021/09/07 07:55:56;;;;;;;6.47;5.87;;;21.10;99.90;;;;;;5009458;28;20871;-78
2021/09/07 07:58:25;;;;;;;7.23;6.13;;;21.20;99.90;;;;;;5012167;28;20445;-75
2021/09/07 08:00:53;;;;;;;7.83;6.27;;;21.40;99.90;;;;;;5005159;28;20990;-76
2021/09/07 08:03:23;;;;;;;8.80;6.43;;;21.50;99.90;;;;;;5011120;28;20545;-78
2021/09/07 08:05:52;;;;;;;10.03;5.43;;;21.60;99.90;;;;;;5006972;28;20457;-80
2021/09/07 08:08:20;;;;;;;6.80;6.10;;;21.70;99.90;;;;;;5011103;28;20457;-76
2021/09/07 08:10:49;;;;;;;8.50;7.60;;;21.80;99.90;;;;;;5006497;28;20494;-77
2021/09/07 08:13:17;;;;;;;5.83;5.20;;;21.90;99.90;;;;;;5010335;28;20453;-78
2021/09/07 08:15:45;;;;;;;6.40;5.73;;;22.00;99.90;;;;;;5007494;28;20451;-78
2021/09/07 08:18:14;;;;;;;5.93;5.43;;;22.10;99.90;;;;;;5010184;28;21001;-78
2021/09/07 08:20:43;;;;;;;5.73;5.20;;;22.20;99.90;;;;;;5005967;28;20570;-78
2021/09/07 08:23:12;;;;;;;7.40;5.40;;;22.20;99.90;;;;;;5006936;28;20487;-78
2021/09/07 08:25:40;;;;;;;5.03;4.57;;;22.20;99.90;;;;;;5010127;28;20457;-77
2021/09/07 08:28:08;;;;;;;7.13;6.40;;;22.30;99.90;;;;;;4997041;28;20502;-78
2021/09/07 08:30:36;;;;;;;6.20;5.60;;;22.40;99.90;;;;;;5004322;28;21047;-78
2021/09/07 08:33:04;;;;;;;6.70;5.23;;;22.40;99.90;;;;;;5009273;28;20547;-76
2021/09/07 08:35:33;;;;;;;5.10;4.60;;;22.40;99.90;;;;;;5004451;28;20491;-78
2021/09/07 08:38:02;;;;;;;6.13;5.27;;;22.40;99.90;;;;;;5010714;28;20491;-78
2021/09/07 08:40:30;;;;;;;6.53;5.93;;;22.40;99.90;;;;;;5006555;28;20442;-77
2021/09/07 08:42:59;;;;;;;5.20;4.70;;;22.50;99.90;;;;;;4999332;28;20476;-78
2021/09/07 08:45:29;;;;;;;5.43;4.97;;;22.50;99.90;;;;;;5008816;28;20456;-78
2021/09/07 08:47:58;;;;;;;5.13;4.50;;;22.60;99.90;;;;;;5008008;28;20511;-78
2021/09/07 08:50:27;;;;;;;5.57;4.97;;;22.70;99.90;;;;;;5007470;28;20485;-76
2021/09/07 08:52:55;;;;;;;6.00;5.00;;;22.70;99.90;;;;;;5008348;28;20504;-78
2021/09/07 08:55:25;;;;;;;5.70;4.70;;;22.70;99.90;;;;;;5009091;28;20544;-78
2021/09/07 08:57:53;;;;;;;6.18;5.50;;;22.80;99.90;;;;;;5005310;28;20981;-78
2021/09/07 09:00:25;;;;;;;5.40;4.90;;;22.90;99.90;;;;;;5003642;28;20221;-79
2021/09/07 09:02:53;;;;;;;6.07;5.30;;;23.00;99.90;;;;;;5007618;28;20912;-77
2021/09/07 09:05:27;;;;;;;6.27;4.80;;;23.00;99.90;;;;;;5006854;28;21012;-79
2021/09/07 09:07:56;;;;;;;5.70;4.73;;;23.20;99.90;;;;;;5007675;28;20920;-78
2021/09/07 09:10:27;;;;;;;5.90;5.10;;;23.30;99.90;;;;;;5009435;28;20473;-78
2021/09/07 09:13:07;;;;;;;5.43;4.60;;;23.30;99.90;;;;;;5006862;28;20469;-77
2021/09/07 09:15:35;;;;;;;5.83;4.70;;;23.30;99.90;;;;;;5006213;28;20486;-78
2021/09/07 09:18:08;;;;;;;5.80;5.30;;;23.30;99.90;;;;;;5003170;28;20462;-78
2021/09/07 09:20:37;;;;;;;7.80;5.87;;;23.40;99.90;;;;;;5007391;28;20461;-79
2021/09/07 09:23:06;;;;;;;6.30;5.50;;;23.40;99.90;;;;;;5007198;28;20477;-78
2021/09/07 09:25:38;;;;;;;6.60;5.70;;;23.40;99.90;;;;;;5008289;28;20448;-78
2021/09/07 09:28:09;;;;;;;5.37;4.87;;;23.40;99.90;;;;;;5001782;28;20512;-81
2021/09/07 09:30:39;;;;;;;5.97;5.43;;;23.50;99.90;;;;;;5006161;28;20513;-79
2021/09/07 09:33:10;;;;;;;7.60;4.30;;;23.50;99.90;;;;;;5003546;28;20484;-78
2021/09/07 09:35:56;;;;;;;4.73;4.23;;;23.60;99.90;;;;;;5004992;28;20448;-78
2021/09/07 09:38:26;;;;;;;6.00;4.40;;;23.70;99.90;;;;;;5007287;28;20972;-76
2021/09/07 09:41:01;;;;;;;4.80;4.13;;;23.70;99.90;;;;;;5006113;28;20453;-79
2021/09/07 09:43:37;;;;;;;5.17;4.40;;;23.80;99.90;;;;;;5008576;28;20473;-78
2021/09/07 09:46:24;;;;;;;4.33;3.97;;;23.80;99.90;;;;;;5008058;28;20975;-78
2021/09/07 09:48:54;;;;;;;5.60;4.80;;;23.90;99.90;;;;;;5006145;28;20980;-80
2021/09/07 09:51:24;;;;;;;4.30;3.90;;;24.00;99.90;;;;;;5004483;28;20926;-77
2021/09/07 09:53:52;;;;;;;6.10;4.80;;;24.00;99.90;;;;;;4995308;28;20998;-78
2021/09/07 09:56:23;;;;;;;6.07;4.80;;;24.10;99.90;;;;;;4986952;28;20472;-78
2021/09/07 09:58:53;;;;;;;6.93;4.80;;;24.10;99.90;;;;;;5005354;28;20465;-79
2021/09/07 10:01:21;;;;;;;5.20;4.50;;;24.00;99.90;;;;;;4999736;28;20560;-78
2021/09/07 10:03:50;;;;;;;7.33;5.70;;;24.10;99.90;;;;;;5001468;28;21044;-76
2021/09/07 10:06:20;;;;;;;4.80;4.40;;;24.10;99.90;;;;;;5005539;28;20456;-79
2021/09/07 10:08:49;;;;;;;5.67;4.77;;;24.10;99.90;;;;;;5006744;28;21035;-79
2021/09/07 10:11:21;;;;;;;5.10;4.37;;;24.20;99.90;;;;;;5004949;28;20476;-80
2021/09/07 10:13:55;;;;;;;5.20;4.50;;;24.30;99.90;;;;;;5005648;28;20458;-78
2021/09/07 10:16:31;;;;;;;5.93;5.30;;;24.40;99.90;;;;;;5005512;28;20830;-77
2021/09/07 10:19:07;;;;;;;5.03;4.30;;;24.40;99.90;;;;;;5007340;28;20449;-77
2021/09/07 10:24:53;;;;;;;5.57;5.00;;;24.50;99.90;;;;;;5011771;28;20496;-78
2021/09/07 10:27:22;;;;;;;4.83;4.33;;;24.60;99.90;;;;;;5010829;28;20484;-76
2021/09/07 10:29:53;;;;;;;5.23;4.73;;;24.60;99.90;;;;;;5008277;28;20464;-79
2021/09/07 10:32:32;;;;;;;4.83;4.43;;;24.70;99.90;;;;;;5009636;28;20568;-78
2021/09/07 10:35:14;;;;;;;5.60;5.03;;;24.70;99.90;;;;;;5008030;28;21273;-77
2021/09/07 10:38:15;;;;;;;4.73;4.33;;;24.70;99.90;;;;;;5009367;28;20461;-80
2021/09/07 10:40:50;;;;;;;5.47;4.90;;;24.70;99.90;;;;;;4968012;28;20458;-78
2021/09/07 10:43:50;;;;;;;6.83;5.47;;;24.80;99.90;;;;;;4969432;28;20533;-79
2021/09/07 10:46:39;;;;;;;4.90;4.40;;;24.80;99.90;;;;;;4998083;28;21018;-78
2021/09/07 10:49:20;;;;;;;5.30;4.80;;;24.80;99.90;;;;;;5006001;28;20448;-76
2021/09/07 10:52:14;;;;;;;6.10;5.50;;;25.00;99.90;;;;;;5008081;28;20218;-79
2021/09/07 10:54:56;;;;;;;7.30;4.73;;;25.00;99.90;;;;;;5010054;28;20461;-79
2021/09/07 10:57:48;;;;;;;6.70;4.93;;;25.10;99.90;;;;;;5003434;28;20966;-77
2021/09/07 11:00:35;;;;;;;5.53;5.03;;;25.10;99.90;;;;;;5001944;28;20834;-78
2021/09/07 11:03:07;;;;;;;5.10;4.70;;;24.90;99.90;;;;;;5010856;28;20512;-79
2021/09/07 11:05:44;;;;;;;6.00;4.47;;;24.90;99.90;;;;;;5009052;28;20442;-79
2021/09/07 11:08:16;;;;;;;4.47;4.07;;;25.00;99.90;;;;;;5002104;28;20461;-78
2021/09/07 11:10:46;;;;;;;4.90;4.33;;;25.00;99.90;;;;;;5005509;28;20442;-78
2021/09/07 11:13:24;;;;;;;4.17;3.83;;;25.10;99.90;;;;;;5010721;28;20476;-77
2021/09/07 11:15:53;;;;;;;5.78;5.28;;;25.20;99.90;;;;;;5006680;28;20537;-79
2021/09/07 11:18:25;;;;;;;5.43;4.47;;;25.40;99.90;;;;;;5009476;28;20605;-80
2021/09/07 11:20:55;;;;;;;7.50;4.50;;;25.40;99.90;;;;;;5006501;28;21022;-76
2021/09/07 11:23:26;;;;;;;5.30;4.87;;;25.40;99.90;;;;;;5008872;28;20445;-78
2021/09/07 11:26:00;;;;;;;5.10;4.47;;;25.40;99.90;;;;;;5009987;28;20477;-78
2021/09/07 11:28:29;;;;;;;5.00;4.50;;;25.50;99.90;;;;;;5007459;28;20472;-78
2021/09/07 11:30:58;;;;;;;5.87;5.37;;;25.50;99.90;;;;;;5005687;28;20485;-78
2021/09/07 11:33:30;;;;;;;6.57;5.20;;;25.50;99.90;;;;;;5010459;28;20752;-79
2021/09/07 11:36:00;;;;;;;5.47;5.00;;;25.50;99.90;;;;;;5007516;28;20456;-78
2021/09/07 11:38:30;;;;;;;5.43;4.50;;;25.50;99.90;;;;;;5009284;28;20445;-78
2021/09/07 11:41:01;;;;;;;5.83;4.60;;;25.40;99.90;;;;;;5006284;28;20449;-79
2021/09/07 11:43:32;;;;;;;5.43;4.43;;;25.30;99.90;;;;;;5009988;28;21008;-78
2021/09/07 11:46:11;;;;;;;5.03;4.63;;;25.30;99.90;;;;;;5008453;28;20484;-78
2021/09/07 11:48:45;;;;;;;5.30;4.80;;;25.40;99.90;;;;;;5005500;28;21076;-78
2021/09/07 11:51:16;;;;;;;4.60;4.20;;;25.40;99.90;;;;;;4999242;28;20542;-78
2021/09/07 11:53:46;;;;;;;5.40;4.20;;;25.40;99.90;;;;;;5005177;28;20489;-79
2021/09/07 11:56:21;;;;;;;4.90;4.27;;;25.50;99.90;;;;;;5007641;28;20465;-79
2021/09/07 11:58:49;;;;;;;4.60;4.00;;;25.50;99.90;;;;;;5006502;28;20523;-80
2021/09/07 12:01:19;;;;;;;4.47;4.07;;;25.40;99.90;;;;;;5006644;28;20473;-79
2021/09/07 12:03:51;;;;;;;5.37;4.87;;;25.50;99.90;;;;;;4992311;28;20449;-79
2021/09/07 12:06:30;;;;;;;4.93;4.43;;;25.60;99.90;;;;;;5007434;28;20808;-79
2021/09/07 12:09:11;;;;;;;4.90;4.10;;;25.60;99.90;;;;;;5008825;28;20983;-77
2021/09/07 12:11:40;;;;;;;4.70;4.30;;;25.60;99.90;;;;;;5009792;28;20472;-79
2021/09/07 12:14:10;;;;;;;4.87;3.80;;;25.60;99.90;;;;;;5007923;28;20437;-77
2021/09/07 12:16:49;;;;;;;4.73;4.33;;;25.60;99.90;;;;;;5009634;28;20453;-79
2021/09/07 12:19:28;;;;;;;5.60;5.10;;;25.60;99.90;;;;;;5003703;28;20497;-78
2021/09/07 12:22:08;;;;;;;4.30;3.90;;;25.60;99.90;;;;;;5006964;28;20982;-78
2021/09/07 12:24:36;;;;;;;4.70;4.30;;;25.70;99.90;;;;;;5000756;28;20453;-80
2021/09/07 12:27:23;;;;;;;5.17;4.30;;;25.70;99.90;;;;;;4997974;28;20773;-80
2021/09/07 12:30:10;;;;;;;5.17;4.63;;;25.70;99.90;;;;;;5006026;28;20461;-78
2021/09/07 12:32:56;;;;;;;4.83;4.43;;;25.70;99.90;;;;;;4992155;28;20473;-78
2021/09/07 12:35:34;;;;;;;4.73;4.33;;;25.70;99.90;;;;;;5003453;28;20466;-79
2021/09/07 12:38:05;;;;;;;6.13;4.80;;;25.70;99.90;;;;;;5003057;28;20465;-79
2021/09/07 12:40:33;;;;;;;4.13;3.73;;;25.70;99.90;;;;;;5006108;28;20449;-78
2021/09/07 12:43:13;;;;;;;6.17;4.73;;;25.70;99.90;;;;;;5000514;28;20468;-77
2021/09/07 12:45:43;;;;;;;4.90;4.40;;;25.70;99.90;;;;;;5006032;28;20460;-78
2021/09/07 12:48:11;;;;;;;4.63;4.23;;;25.80;99.90;;;;;;5005812;28;20952;-78
2021/09/07 12:50:41;;;;;;;5.50;3.80;;;25.70;99.90;;;;;;5004154;28;20820;-78
2021/09/07 12:53:10;;;;;;;4.40;4.00;;;25.70;99.90;;;;;;5006567;28;20485;-78
2021/09/07 12:55:59;;;;;;;7.23;4.47;;;25.70;99.90;;;;;;5003680;28;20988;-78
2021/09/07 12:58:29;;;;;;;4.40;4.00;;;25.70;99.90;;;;;;5007182;28;20472;-79
2021/09/07 13:00:58;;;;;;;4.97;3.80;;;25.80;99.90;;;;;;4998285;28;20449;-77
2021/09/07 13:03:27;;;;;;;5.77;5.27;;;25.80;99.90;;;;;;4997939;28;20474;-77
2021/09/07 13:05:57;;;;;;;5.50;4.60;;;25.70;99.90;;;;;;5004531;28;20481;-77